Time;durP1;ratioP1;P1;durP2;ratioP2;P2;SDS_P1;SDS_P2;PMS_P1;PMS_P2;Temp;Humidity;BMP_temperature;BMP_pressure;BME280_temperature;BME280_humidity;BME280_pressure;Samples;Min_cycle;Max_cycle;Signal;HPM_P1;HPM_P2
2021/05/27 00:02:18;;;;;;;4.00;1.80;;;9.90;93.60;;;;;;5032441;28;20292;-77
2021/05/27 00:04:43;;;;;;;4.73;1.57;;;9.90;93.80;;;;;;5042775;28;20570;-77
2021/05/27 00:07:09;;;;;;;3.80;1.60;;;9.90;93.90;;;;;;5040776;28;20272;-76
2021/05/27 00:09:35;;;;;;;3.80;1.70;;;9.90;93.90;;;;;;5031752;28;20184;-78
2021/05/27 00:12:01;;;;;;;3.70;1.60;;;9.90;93.90;;;;;;5041224;28;20442;-76
2021/05/27 00:14:27;;;;;;;5.13;2.20;;;9.90;93.80;;;;;;5044214;28;20272;-77
2021/05/27 00:16:53;;;;;;;3.27;1.80;;;9.90;93.80;;;;;;5020619;28;21008;-76
2021/05/27 00:19:18;;;;;;;4.10;2.00;;;9.90;93.80;;;;;;5035962;28;20207;-77
2021/05/27 00:21:44;;;;;;;6.70;1.77;;;9.90;93.90;;;;;;5029922;28;20422;-78
2021/05/27 00:24:10;;;;;;;4.13;1.90;;;9.90;94.10;;;;;;5050090;28;20192;-77
2021/05/27 00:26:36;;;;;;;3.23;1.70;;;9.80;94.30;;;;;;5042880;28;20310;-76
2021/05/27 00:29:02;;;;;;;5.07;1.77;;;9.80;94.30;;;;;;5028294;28;20937;-77
2021/05/27 00:31:27;;;;;;;3.63;1.70;;;9.80;94.40;;;;;;5024452;28;20872;-77
2021/05/27 00:33:53;;;;;;;5.17;2.03;;;9.80;94.50;;;;;;5034560;28;20212;-76
2021/05/27 00:36:19;;;;;;;5.47;1.67;;;9.80;94.70;;;;;;5036836;28;20209;-77
2021/05/27 00:38:44;;;;;;;4.70;1.93;;;9.80;94.90;;;;;;5037535;28;20255;-76
2021/05/27 00:41:10;;;;;;;5.20;1.97;;;9.70;95.00;;;;;;5035020;28;20177;-76
2021/05/27 00:43:36;;;;;;;3.00;1.50;;;9.70;95.10;;;;;;5042761;28;20197;-77
2021/05/27 00:46:02;;;;;;;4.80;2.10;;;9.70;95.30;;;;;;5031546;28;20531;-77
2021/05/27 00:51:12;;;;;;;5.97;1.93;;;9.70;94.90;;;;;;5048446;28;20237;-77
2021/05/27 00:53:37;;;;;;;8.30;2.30;;;9.70;94.80;;;;;;5047421;28;21028;-76
2021/05/27 00:56:04;;;;;;;4.00;1.80;;;9.70;94.90;;;;;;5027831;28;20205;-77
2021/05/27 00:58:31;;;;;;;3.73;1.90;;;9.70;94.90;;;;;;5044834;28;20625;-75
2021/05/27 01:00:57;;;;;;;4.57;1.93;;;9.70;94.90;;;;;;5050763;28;20773;-77
2021/05/27 01:03:23;;;;;;;4.80;1.80;;;9.70;95.00;;;;;;5036059;28;20437;-76
2021/05/27 01:05:48;;;;;;;6.23;1.80;;;9.70;95.00;;;;;;5050945;28;20733;-75
2021/05/27 01:08:14;;;;;;;5.57;2.00;;;9.70;94.70;;;;;;5038168;28;20242;-75
2021/05/27 01:10:40;;;;;;;5.20;2.20;;;9.70;94.60;;;;;;5042130;28;20204;-77
2021/05/27 01:13:06;;;;;;;5.53;2.03;;;9.70;94.40;;;;;;5049217;28;20469;-75
2021/05/27 01:15:35;;;;;;;4.77;1.97;;;9.70;94.30;;;;;;5045485;28;20455;-78
2021/05/27 01:18:14;;;;;;;4.50;2.37;;;9.70;94.30;;;;;;5046583;28;20843;-78
2021/05/27 01:20:47;;;;;;;5.37;1.73;;;9.70;94.40;;;;;;5046363;28;20422;-76
2021/05/27 01:23:14;;;;;;;3.80;1.90;;;9.70;94.40;;;;;;5044049;28;20432;-77
2021/05/27 01:25:42;;;;;;;4.33;2.03;;;9.80;94.40;;;;;;5047611;28;20470;-76
2021/05/27 01:28:08;;;;;;;3.33;1.70;;;9.70;94.20;;;;;;5051421;28;20513;-76
2021/05/27 01:30:33;;;;;;;4.80;2.27;;;9.80;94.40;;;;;;5042418;28;20449;-76
2021/05/27 01:32:59;;;;;;;5.33;1.87;;;9.80;94.30;;;;;;5049675;28;20535;-77
2021/05/27 01:35:26;;;;;;;3.80;1.83;;;9.80;94.40;;;;;;5050915;28;20639;-75
2021/05/27 01:37:53;;;;;;;4.40;2.23;;;9.80;94.20;;;;;;5057440;28;20210;-76
2021/05/27 01:40:21;;;;;;;3.10;1.57;;;9.70;94.30;;;;;;5055317;28;20929;-77
2021/05/27 01:42:47;;;;;;;5.90;2.20;;;9.70;94.50;;;;;;5044003;28;20430;-76
2021/05/27 01:45:14;;;;;;;4.40;2.30;;;9.70;94.60;;;;;;5047183;28;20905;-77
2021/05/27 01:47:41;;;;;;;4.43;2.30;;;9.70;94.60;;;;;;5050219;28;20423;-77
2021/05/27 01:50:09;;;;;;;3.47;1.90;;;9.70;94.50;;;;;;5036762;28;20431;-76
2021/05/27 01:52:35;;;;;;;5.20;2.20;;;9.70;94.60;;;;;;5050132;28;20467;-77
2021/05/27 01:55:01;;;;;;;4.77;2.03;;;9.70;94.60;;;;;;5036812;28;21391;-77
2021/05/27 01:57:27;;;;;;;4.93;2.20;;;9.60;94.60;;;;;;5025540;28;20263;-76
2021/05/27 01:59:52;;;;;;;3.87;1.83;;;9.50;94.90;;;;;;5031228;28;20239;-76
2021/05/27 02:02:18;;;;;;;5.67;2.73;;;9.60;94.90;;;;;;5036755;28;20272;-77
2021/05/27 02:04:44;;;;;;;4.43;2.03;;;9.60;95.00;;;;;;5036137;28;20608;-77
2021/05/27 02:07:14;;;;;;;3.80;2.13;;;9.60;94.90;;;;;;5043441;28;20213;-76
2021/05/27 02:09:40;;;;;;;3.93;1.90;;;9.60;94.80;;;;;;5046848;28;21379;-78
2021/05/27 02:12:07;;;;;;;4.73;1.90;;;9.50;94.80;;;;;;5032586;28;20535;-77
2021/05/27 02:14:33;;;;;;;3.83;2.47;;;9.60;94.90;;;;;;5050212;28;20450;-77
2021/05/27 02:16:59;;;;;;;4.03;2.10;;;9.60;94.70;;;;;;5053386;28;20443;-77
2021/05/27 02:19:25;;;;;;;7.90;2.00;;;9.60;94.60;;;;;;5036332;28;20447;-77
2021/05/27 02:21:51;;;;;;;4.80;2.00;;;9.60;94.50;;;;;;5043699;28;20419;-76
2021/05/27 02:24:17;;;;;;;5.30;2.33;;;9.60;94.40;;;;;;5036052;28;20415;-76
2021/05/27 02:26:43;;;;;;;5.53;2.60;;;9.60;94.40;;;;;;5032788;28;20497;-76
2021/05/27 02:29:09;;;;;;;4.80;2.40;;;9.60;94.40;;;;;;5025696;28;20432;-79
2021/05/27 02:31:35;;;;;;;4.33;2.10;;;9.60;94.40;;;;;;5033970;28;20201;-76
2021/05/27 02:34:01;;;;;;;9.00;2.10;;;9.60;94.20;;;;;;5049475;28;20205;-76
2021/05/27 02:36:28;;;;;;;4.57;2.20;;;9.60;94.10;;;;;;5048576;28;20489;-77
2021/05/27 02:38:55;;;;;;;5.13;2.37;;;9.60;94.00;;;;;;5042921;28;20184;-76
2021/05/27 02:41:21;;;;;;;6.07;2.10;;;9.60;94.20;;;;;;5054205;28;20828;-76
2021/05/27 02:43:48;;;;;;;4.63;2.33;;;9.60;94.10;;;;;;5041333;28;20431;-77
2021/05/27 02:46:14;;;;;;;3.43;1.90;;;9.60;94.20;;;;;;5035977;28;20444;-77
2021/05/27 02:48:39;;;;;;;6.23;2.50;;;9.60;94.30;;;;;;5035693;28;20433;-78
2021/05/27 02:51:05;;;;;;;4.67;2.23;;;9.60;94.30;;;;;;5054002;28;20506;-77
2021/05/27 02:53:31;;;;;;;4.50;2.30;;;9.60;94.30;;;;;;5054275;28;20212;-76
2021/05/27 02:55:57;;;;;;;3.93;2.30;;;9.60;94.20;;;;;;5029507;28;20456;-76
2021/05/27 02:58:23;;;;;;;3.87;1.97;;;9.60;94.20;;;;;;5032858;28;20188;-78
2021/05/27 03:00:49;;;;;;;4.67;2.13;;;9.60;94.40;;;;;;5052692;28;20172;-77
2021/05/27 03:03:16;;;;;;;4.33;2.00;;;9.70;94.60;;;;;;5027694;28;21006;-75
2021/05/27 03:05:45;;;;;;;4.97;1.90;;;9.70;94.20;;;;;;5042681;28;20978;-77
2021/05/27 03:08:10;;;;;;;4.80;1.80;;;9.70;94.30;;;;;;5038135;28;20513;-78
2021/05/27 03:10:36;;;;;;;4.33;2.10;;;9.70;94.30;;;;;;5042272;28;20427;-78
2021/05/27 03:13:02;;;;;;;4.30;2.07;;;9.70;94.10;;;;;;5045993;28;20208;-76
2021/05/27 03:15:28;;;;;;;3.80;1.83;;;9.60;94.30;;;;;;5035210;28;20641;-77
2021/05/27 03:17:54;;;;;;;4.27;2.13;;;9.60;94.60;;;;;;5054854;28;20451;-77
2021/05/27 03:20:20;;;;;;;5.03;2.30;;;9.60;94.70;;;;;;5046516;28;20425;-76
2021/05/27 03:22:45;;;;;;;4.60;2.00;;;9.60;94.80;;;;;;5043623;28;20183;-75
2021/05/27 03:25:12;;;;;;;5.13;2.40;;;9.60;94.80;;;;;;5048435;28;20434;-77
2021/05/27 03:27:37;;;;;;;5.47;2.00;;;9.50;94.70;;;;;;5053533;28;20296;-77
2021/05/27 03:30:04;;;;;;;4.87;2.70;;;9.50;94.80;;;;;;5031301;28;21109;-77
2021/05/27 03:32:30;;;;;;;4.23;2.23;;;9.60;94.70;;;;;;5032425;28;20232;-78
2021/05/27 03:34:55;;;;;;;3.10;1.80;;;9.50;94.80;;;;;;5042403;28;20411;-76
2021/05/27 03:37:21;;;;;;;2.93;1.63;;;9.50;94.70;;;;;;5050178;28;20696;-76
2021/05/27 03:42:31;;;;;;;4.47;2.00;;;9.60;94.60;;;;;;5045086;28;20328;-76
2021/05/27 03:44:57;;;;;;;5.23;2.27;;;9.60;94.20;;;;;;5043138;28;20450;-76
2021/05/27 03:47:22;;;;;;;4.33;1.77;;;9.60;94.20;;;;;;5039472;28;20266;-77
2021/05/27 03:49:48;;;;;;;4.77;2.17;;;9.60;94.40;;;;;;5038841;28;20623;-77
2021/05/27 03:52:14;;;;;;;4.17;1.87;;;9.70;94.30;;;;;;5043567;28;20608;-78
2021/05/27 03:54:40;;;;;;;6.20;2.10;;;9.70;94.20;;;;;;5032305;28;20195;-77
2021/05/27 03:57:05;;;;;;;4.70;2.20;;;9.60;94.30;;;;;;5018128;28;20205;-73
2021/05/27 04:02:15;;;;;;;3.43;2.00;;;9.60;94.50;;;;;;5014948;28;20235;-76
2021/05/27 04:07:26;;;;;;;5.57;2.50;;;9.50;94.50;;;;;;5037550;28;20211;-76
2021/05/27 04:09:52;;;;;;;4.80;2.23;;;9.60;94.30;;;;;;5041690;28;21172;-74
2021/05/27 04:15:22;;;;;;;7.20;2.23;;;9.60;94.10;;;;;;5023872;28;20429;-77
2021/05/27 04:18:00;;;;;;;4.30;2.13;;;9.60;94.10;;;;;;5033895;28;20468;-77
2021/05/27 04:20:30;;;;;;;7.40;2.80;;;9.60;94.30;;;;;;5047443;28;20479;-78
2021/05/27 04:22:56;;;;;;;7.13;2.70;;;9.50;94.50;;;;;;5035019;28;20945;-76
2021/05/27 04:25:24;;;;;;;5.70;2.60;;;9.60;94.70;;;;;;5037208;28;20465;-77
2021/05/27 04:27:51;;;;;;;4.53;2.57;;;9.60;94.80;;;;;;5043503;28;20466;-76
2021/05/27 04:30:18;;;;;;;4.30;2.43;;;9.60;94.90;;;;;;5027172;28;20428;-75
2021/05/27 04:33:12;;;;;;;4.30;2.20;;;9.70;94.70;;;;;;5043164;28;20507;-75
2021/05/27 04:35:39;;;;;;;4.23;2.40;;;9.70;94.80;;;;;;5043163;28;20593;-77
2021/05/27 04:38:08;;;;;;;5.60;2.47;;;9.80;94.60;;;;;;5041734;28;20809;-77
2021/05/27 04:40:35;;;;;;;9.00;2.73;;;9.80;94.50;;;;;;5037419;28;20421;-77
2021/05/27 04:43:01;;;;;;;6.73;2.60;;;9.90;94.40;;;;;;5039267;28;20780;-77
2021/05/27 04:45:27;;;;;;;5.13;2.30;;;9.90;94.20;;;;;;5042064;28;20420;-75
2021/05/27 04:47:53;;;;;;;6.00;2.77;;;9.90;94.10;;;;;;5042647;28;20192;-76
2021/05/27 04:50:21;;;;;;;6.03;2.70;;;9.90;94.10;;;;;;5032193;28;20423;-77
2021/05/27 04:52:48;;;;;;;5.80;2.70;;;9.80;94.20;;;;;;5031224;28;20991;-75
2021/05/27 04:55:14;;;;;;;9.33;3.07;;;9.90;94.20;;;;;;5026643;28;20496;-76
2021/05/27 04:57:40;;;;;;;8.80;3.13;;;9.90;94.30;;;;;;5020110;28;20775;-75
2021/05/27 05:00:10;;;;;;;4.90;2.50;;;9.90;94.20;;;;;;5043092;28;20430;-76
2021/05/27 05:02:36;;;;;;;7.40;2.63;;;9.90;94.40;;;;;;5042329;28;20185;-76
2021/05/27 05:05:03;;;;;;;5.10;2.73;;;10.00;93.70;;;;;;5035933;28;20510;-76
2021/05/27 05:07:28;;;;;;;5.20;2.80;;;10.00;93.90;;;;;;5037580;28;20456;-75
2021/05/27 05:09:54;;;;;;;6.47;2.90;;;10.00;93.90;;;;;;5048417;28;20483;-76
2021/05/27 05:12:20;;;;;;;5.67;2.83;;;10.00;93.70;;;;;;5039572;28;20209;-78
2021/05/27 05:14:45;;;;;;;5.30;2.70;;;10.00;93.70;;;;;;5048894;28;20675;-76
2021/05/27 05:17:11;;;;;;;6.20;2.73;;;10.00;93.30;;;;;;5050832;28;20227;-76
2021/05/27 05:19:37;;;;;;;6.30;2.57;;;10.10;93.20;;;;;;5036823;28;20610;-76
2021/05/27 05:22:03;;;;;;;5.23;2.70;;;10.10;93.00;;;;;;5039880;28;20235;-76
2021/05/27 05:24:28;;;;;;;5.40;2.87;;;10.10;93.20;;;;;;5044907;28;20270;-75
2021/05/27 05:26:54;;;;;;;4.43;3.00;;;10.10;93.30;;;;;;5043696;28;20585;-74
2021/05/27 05:29:20;;;;;;;4.20;2.40;;;10.20;93.20;;;;;;5039755;28;20193;-77
2021/05/27 05:31:46;;;;;;;5.90;2.97;;;10.30;92.70;;;;;;5043379;28;20450;-76
2021/05/27 05:34:12;;;;;;;3.80;2.53;;;10.40;92.30;;;;;;5041448;28;20278;-78
2021/05/27 05:36:38;;;;;;;5.37;2.23;;;10.40;91.80;;;;;;5057049;28;20438;-75
2021/05/27 05:39:04;;;;;;;4.43;2.67;;;10.50;91.10;;;;;;5045370;28;20423;-78
2021/05/27 05:41:29;;;;;;;5.90;2.70;;;10.60;90.70;;;;;;5044263;28;20205;-77
2021/05/27 05:43:55;;;;;;;3.67;1.97;;;10.70;90.50;;;;;;5046751;28;20423;-76
2021/05/27 05:46:21;;;;;;;9.00;3.73;;;10.80;88.90;;;;;;5033006;28;20212;-75
2021/05/27 05:48:46;;;;;;;3.97;2.30;;;10.80;89.20;;;;;;5047086;28;20196;-75
2021/05/27 05:51:12;;;;;;;5.47;2.60;;;10.80;88.60;;;;;;5033408;28;20185;-78
2021/05/27 05:53:38;;;;;;;3.80;2.40;;;10.80;88.90;;;;;;5046535;28;20236;-75
2021/05/27 05:56:04;;;;;;;6.40;2.47;;;10.80;88.70;;;;;;5035856;28;20216;-78
2021/05/27 05:58:30;;;;;;;5.80;2.10;;;10.80;88.10;;;;;;5045822;28;20193;-76
2021/05/27 06:00:56;;;;;;;3.60;2.30;;;10.80;88.30;;;;;;5033811;28;20424;-76
2021/05/27 06:03:22;;;;;;;5.53;2.83;;;10.90;88.40;;;;;;5033740;28;20439;-76
2021/05/27 06:05:48;;;;;;;5.40;2.60;;;10.90;87.80;;;;;;5033954;28;20799;-77
2021/05/27 06:08:14;;;;;;;3.43;2.30;;;11.00;87.30;;;;;;5021396;28;20432;-77
2021/05/27 06:10:40;;;;;;;5.80;2.50;;;11.10;86.50;;;;;;5034767;28;20196;-77
2021/05/27 06:13:06;;;;;;;4.93;2.30;;;11.10;86.20;;;;;;5042434;28;20212;-76
2021/05/27 06:15:32;;;;;;;3.20;2.03;;;11.10;85.20;;;;;;5037665;28;20659;-76
2021/05/27 06:17:59;;;;;;;4.57;2.57;;;11.20;84.10;;;;;;5040846;28;20427;-77
2021/05/27 06:20:27;;;;;;;3.07;2.00;;;11.30;83.70;;;;;;5033079;28;20918;-77
2021/05/27 06:22:53;;;;;;;3.40;2.17;;;11.20;84.00;;;;;;5034206;28;20965;-76
2021/05/27 06:25:21;;;;;;;4.43;2.10;;;11.40;82.50;;;;;;5038534;28;20438;-77
2021/05/27 06:27:47;;;;;;;4.60;2.10;;;11.40;81.10;;;;;;5055421;28;20427;-76
2021/05/27 06:30:14;;;;;;;5.03;2.70;;;11.50;80.60;;;;;;5034136;28;20432;-76
2021/05/27 06:32:40;;;;;;;3.70;2.10;;;11.60;80.90;;;;;;5049919;28;20501;-76
2021/05/27 06:35:09;;;;;;;2.53;1.93;;;11.70;79.00;;;;;;5051882;28;20452;-76
2021/05/27 06:37:37;;;;;;;2.60;2.00;;;11.80;79.30;;;;;;5043530;28;20440;-76
2021/05/27 06:40:08;;;;;;;2.47;1.90;;;11.80;78.00;;;;;;5041679;28;20449;-76
2021/05/27 06:42:34;;;;;;;3.73;2.33;;;12.00;77.00;;;;;;5039664;28;20516;-76
2021/05/27 06:45:00;;;;;;;3.33;1.97;;;11.90;77.70;;;;;;5044636;28;20424;-77
2021/05/27 06:47:26;;;;;;;3.67;2.40;;;12.00;77.00;;;;;;5045784;28;20458;-77
2021/05/27 06:49:52;;;;;;;3.40;1.73;;;12.00;76.70;;;;;;5040654;28;20419;-76
2021/05/27 06:52:18;;;;;;;4.37;2.27;;;12.00;74.60;;;;;;5039207;28;20955;-77
2021/05/27 06:54:44;;;;;;;1.77;1.60;;;11.80;75.50;;;;;;5043752;28;20347;-76
2021/05/27 06:57:10;;;;;;;4.93;2.10;;;11.90;76.50;;;;;;5022064;28;20209;-78
2021/05/27 06:59:35;;;;;;;5.33;2.10;;;12.00;77.00;;;;;;5048187;28;20522;-76
2021/05/27 07:02:01;;;;;;;3.23;1.80;;;12.10;76.70;;;;;;5036704;28;20222;-76
2021/05/27 07:04:27;;;;;;;4.00;2.37;;;12.20;76.20;;;;;;5035862;28;20189;-76
2021/05/27 07:06:53;;;;;;;2.97;2.50;;;12.30;76.10;;;;;;5054157;28;20587;-78
2021/05/27 07:09:20;;;;;;;3.80;2.70;;;12.50;74.80;;;;;;5056161;28;20203;-77
2021/05/27 07:11:49;;;;;;;4.23;2.10;;;12.60;74.50;;;;;;5060042;28;20561;-77
2021/05/27 07:14:15;;;;;;;4.23;1.93;;;12.90;73.70;;;;;;5046156;28;20478;-77
2021/05/27 07:16:41;;;;;;;3.93;2.10;;;13.10;72.10;;;;;;5046732;28;20452;-77
2021/05/27 07:19:07;;;;;;;2.63;2.10;;;13.20;71.80;;;;;;5048550;28;20181;-76
2021/05/27 07:21:33;;;;;;;3.77;1.73;;;13.40;71.70;;;;;;5040329;28;20771;-76
2021/05/27 07:23:58;;;;;;;4.23;2.10;;;13.10;70.70;;;;;;5038960;28;20196;-76
2021/05/27 07:26:25;;;;;;;3.50;1.70;;;12.80;69.50;;;;;;5042727;28;20217;-76
2021/05/27 07:28:51;;;;;;;2.57;1.70;;;12.70;69.90;;;;;;5043795;28;20446;-75
2021/05/27 07:31:16;;;;;;;4.70;2.20;;;12.60;69.80;;;;;;5039232;28;20451;-76
2021/05/27 07:33:42;;;;;;;3.80;2.17;;;12.70;70.80;;;;;;5037685;28;20213;-76
2021/05/27 07:36:08;;;;;;;2.70;2.00;;;12.60;70.50;;;;;;5052130;28;20243;-76
2021/05/27 07:38:34;;;;;;;5.17;1.83;;;12.70;70.20;;;;;;5038932;28;20181;-76
2021/05/27 07:41:00;;;;;;;2.60;1.80;;;12.70;70.10;;;;;;5046224;28;20527;-76
2021/05/27 07:43:26;;;;;;;2.37;1.87;;;12.60;70.70;;;;;;5034197;28;20232;-76
2021/05/27 07:45:52;;;;;;;2.70;2.00;;;12.70;71.10;;;;;;5045136;28;20443;-77
2021/05/27 07:48:18;;;;;;;2.57;1.70;;;12.80;67.60;;;;;;5046080;28;20480;-79
2021/05/27 07:50:43;;;;;;;2.20;1.70;;;12.90;67.60;;;;;;5040931;28;20229;-76
2021/05/27 07:53:11;;;;;;;2.67;1.80;;;12.80;68.30;;;;;;5040159;28;20463;-76
2021/05/27 07:55:39;;;;;;;5.70;1.80;;;13.00;68.20;;;;;;5034790;28;20711;-77
2021/05/27 07:58:04;;;;;;;3.63;2.10;;;13.10;68.00;;;;;;5025216;28;20946;-78
2021/05/27 08:00:30;;;;;;;5.37;2.10;;;13.20;68.00;;;;;;5044435;28;20416;-75
2021/05/27 08:02:56;;;;;;;4.23;2.03;;;13.10;67.20;;;;;;5017642;28;20201;-76
2021/05/27 08:05:22;;;;;;;3.93;2.27;;;13.10;66.00;;;;;;5038066;28;20439;-77
2021/05/27 08:07:49;;;;;;;5.10;2.13;;;13.20;66.00;;;;;;5040531;28;20219;-78
2021/05/27 08:10:15;;;;;;;3.10;2.20;;;13.20;67.20;;;;;;5047318;28;20185;-76
2021/05/27 08:12:42;;;;;;;3.53;1.87;;;13.30;66.90;;;;;;5046909;28;20469;-77
2021/05/27 08:15:09;;;;;;;4.43;2.40;;;13.20;65.40;;;;;;5035012;28;20416;-76
2021/05/27 08:17:35;;;;;;;4.97;2.23;;;13.10;66.00;;;;;;5047832;28;20980;-76
2021/05/27 08:20:02;;;;;;;6.13;2.23;;;13.00;65.80;;;;;;5042285;28;20425;-76
2021/05/27 08:22:27;;;;;;;2.43;2.00;;;13.10;66.60;;;;;;5040150;28;20862;-76
2021/05/27 08:24:56;;;;;;;8.17;2.47;;;13.20;66.70;;;;;;5045129;28;20461;-77
2021/05/27 08:27:22;;;;;;;4.10;2.20;;;13.30;65.60;;;;;;5033019;28;20244;-77
2021/05/27 08:29:48;;;;;;;5.00;1.90;;;13.20;65.10;;;;;;5041707;28;20492;-78
2021/05/27 08:32:14;;;;;;;3.10;1.70;;;13.30;66.10;;;;;;5042804;28;20490;-76
2021/05/27 08:34:40;;;;;;;2.13;1.87;;;13.30;64.50;;;;;;5040431;28;20655;-78
2021/05/27 08:37:07;;;;;;;3.73;3.27;;;13.30;65.00;;;;;;5038087;28;20233;-79
2021/05/27 08:39:33;;;;;;;5.40;2.20;;;13.40;64.20;;;;;;5043259;28;20426;-78
2021/05/27 08:42:00;;;;;;;3.37;1.93;;;13.40;63.10;;;;;;5049824;28;20423;-78
2021/05/27 08:44:25;;;;;;;6.37;1.97;;;13.60;64.10;;;;;;5039538;28;20431;-78
2021/05/27 08:46:52;;;;;;;3.73;2.43;;;13.80;63.50;;;;;;5033334;28;20498;-75
2021/05/27 08:49:18;;;;;;;3.13;2.30;;;14.00;60.90;;;;;;5040457;28;21021;-77
2021/05/27 08:51:44;;;;;;;3.20;1.93;;;13.90;61.50;;;;;;5048165;28;20431;-77
2021/05/27 08:54:10;;;;;;;2.07;1.67;;;14.10;62.30;;;;;;5039050;28;20466;-76
2021/05/27 08:56:36;;;;;;;4.23;2.03;;;14.10;60.90;;;;;;5018652;28;20989;-76
2021/05/27 08:59:02;;;;;;;3.47;2.50;;;14.00;61.90;;;;;;5038720;28;20182;-78
2021/05/27 09:01:27;;;;;;;5.80;1.90;;;13.80;62.50;;;;;;5038875;28;20823;-77
2021/05/27 09:03:56;;;;;;;2.77;1.87;;;13.70;61.20;;;;;;5033520;28;20431;-77
2021/05/27 09:06:23;;;;;;;3.10;1.90;;;13.50;61.60;;;;;;5044305;28;20204;-77
2021/05/27 09:08:49;;;;;;;4.03;1.90;;;13.50;61.50;;;;;;5044499;28;20475;-77
2021/05/27 09:11:20;;;;;;;3.50;1.90;;;13.80;60.60;;;;;;5042930;28;20424;-78
2021/05/27 09:14:01;;;;;;;2.87;1.70;;;14.00;60.30;;;;;;5056567;28;20446;-78
2021/05/27 09:16:27;;;;;;;3.87;1.70;;;14.10;57.80;;;;;;5055207;28;20442;-77
2021/05/27 09:18:53;;;;;;;5.53;1.97;;;14.20;58.10;;;;;;5055249;28;20922;-75
2021/05/27 09:21:36;;;;;;;9.43;2.07;;;14.60;58.10;;;;;;5057255;28;20422;-76
2021/05/27 09:24:02;;;;;;;2.90;1.87;;;14.90;57.00;;;;;;5056817;28;20447;-77
2021/05/27 09:26:28;;;;;;;3.90;1.83;;;14.90;56.20;;;;;;5049351;28;20435;-75
2021/05/27 09:29:12;;;;;;;3.60;1.97;;;15.00;56.50;;;;;;5034988;28;21214;-78
2021/05/27 09:32:04;;;;;;;2.23;1.80;;;14.80;56.90;;;;;;5043397;28;20746;-75
2021/05/27 09:34:52;;;;;;;2.80;1.83;;;14.70;56.60;;;;;;5054612;28;20458;-77
2021/05/27 09:37:36;;;;;;;6.03;1.83;;;14.50;57.80;;;;;;5038231;28;20444;-76
2021/05/27 09:40:05;;;;;;;3.27;2.13;;;14.60;58.50;;;;;;5046336;28;20459;-76
2021/05/27 09:42:48;;;;;;;8.63;2.37;;;14.60;58.10;;;;;;5052355;28;20489;-77
2021/05/27 09:45:17;;;;;;;6.10;2.10;;;14.70;57.20;;;;;;5036828;28;20440;-76
2021/05/27 09:47:43;;;;;;;3.40;1.80;;;14.90;56.90;;;;;;5048056;28;20902;-77
2021/05/27 09:50:10;;;;;;;3.00;1.83;;;14.90;56.60;;;;;;5036897;28;20435;-75
2021/05/27 09:52:42;;;;;;;2.77;1.90;;;15.00;57.20;;;;;;5045740;28;20193;-76
2021/05/27 09:55:19;;;;;;;2.03;1.60;;;14.90;56.50;;;;;;5035196;28;20427;-75
2021/05/27 09:57:47;;;;;;;3.93;2.10;;;15.00;56.80;;;;;;5036357;28;20431;-77
2021/05/27 10:00:21;;;;;;;3.60;1.70;;;15.20;56.60;;;;;;5031975;28;20429;-78
2021/05/27 10:02:48;;;;;;;2.40;2.00;;;15.20;55.40;;;;;;5031099;28;20467;-75
2021/05/27 10:05:14;;;;;;;3.77;1.60;;;15.00;56.10;;;;;;5031799;28;20427;-76
2021/05/27 10:07:46;;;;;;;2.27;2.00;;;15.10;55.80;;;;;;5040738;28;20446;-78
2021/05/27 10:10:23;;;;;;;2.77;1.60;;;15.10;56.50;;;;;;5033242;28;20834;-75
2021/05/27 10:12:53;;;;;;;3.67;2.13;;;15.10;57.00;;;;;;5031844;28;21041;-75
2021/05/27 10:15:22;;;;;;;2.67;1.70;;;15.10;56.40;;;;;;5033148;28;20425;-76
2021/05/27 10:17:50;;;;;;;2.60;1.70;;;15.10;55.70;;;;;;5033124;28;20937;-76
2021/05/27 10:20:26;;;;;;;4.63;2.17;;;15.20;56.00;;;;;;5033033;28;20938;-77
2021/05/27 10:22:56;;;;;;;4.23;1.93;;;15.20;55.40;;;;;;5033770;28;20961;-77
2021/05/27 10:25:23;;;;;;;1.90;1.77;;;15.20;54.80;;;;;;5034865;28;20915;-78
2021/05/27 10:27:51;;;;;;;3.23;1.90;;;15.10;54.80;;;;;;5050779;28;20431;-76
2021/05/27 10:30:18;;;;;;;4.93;1.60;;;14.90;56.40;;;;;;5054739;28;20424;-77
2021/05/27 10:32:52;;;;;;;3.67;2.37;;;14.60;58.00;;;;;;5055753;28;20470;-76
2021/05/27 10:35:19;;;;;;;3.00;2.10;;;14.60;58.50;;;;;;5055090;28;20439;-77
2021/05/27 10:37:46;;;;;;;3.40;2.07;;;14.70;58.50;;;;;;5056449;28;20507;-75
2021/05/27 10:40:12;;;;;;;1.90;1.77;;;14.80;57.80;;;;;;5051801;28;20958;-78
2021/05/27 10:42:56;;;;;;;4.90;2.30;;;14.60;58.50;;;;;;5054735;28;20423;-77
2021/05/27 10:45:26;;;;;;;3.00;1.80;;;14.50;59.10;;;;;;5034971;28;20187;-76
2021/05/27 10:48:11;;;;;;;3.13;2.33;;;14.60;59.70;;;;;;5032066;28;20424;-77
2021/05/27 10:51:06;;;;;;;3.40;2.00;;;14.80;59.60;;;;;;5047112;28;20415;-77
2021/05/27 10:53:38;;;;;;;5.50;2.03;;;15.00;59.50;;;;;;5017365;28;20465;-77
2021/05/27 10:56:10;;;;;;;4.93;2.30;;;14.60;60.30;;;;;;5035349;28;20440;-76
2021/05/27 10:58:48;;;;;;;7.10;3.00;;;14.80;60.40;;;;;;5048292;28;20429;-75
2021/05/27 11:01:41;;;;;;;4.43;2.37;;;14.90;60.00;;;;;;5018367;28;20428;-78
2021/05/27 11:04:28;;;;;;;4.23;2.30;;;15.00;59.60;;;;;;5019620;28;20429;-78
2021/05/27 11:07:18;;;;;;;3.03;2.37;;;15.10;60.30;;;;;;5044699;28;20529;-77
2021/05/27 11:09:46;;;;;;;3.90;2.03;;;15.30;59.50;;;;;;5041038;28;20815;-76
2021/05/27 11:12:20;;;;;;;5.97;2.10;;;15.20;59.60;;;;;;5038788;28;20936;-75
2021/05/27 11:15:03;;;;;;;2.70;2.10;;;15.30;58.20;;;;;;5038960;28;20419;-77
2021/05/27 11:17:29;;;;;;;3.33;2.13;;;15.60;57.60;;;;;;5019862;28;20441;-75
2021/05/27 11:22:59;;;;;;;3.43;2.10;;;16.00;54.90;;;;;;5032474;28;20430;-76
2021/05/27 11:25:28;;;;;;;4.10;2.20;;;15.90;55.70;;;;;;5030114;28;20445;-75
2021/05/27 11:28:00;;;;;;;3.63;1.90;;;16.50;54.90;;;;;;5046219;28;20420;-76
2021/05/27 11:30:30;;;;;;;5.07;2.20;;;16.70;53.80;;;;;;5039149;28;20927;-78
2021/05/27 11:33:04;;;;;;;2.47;1.80;;;16.60;54.00;;;;;;5038899;28;20956;-78
2021/05/27 11:35:37;;;;;;;2.67;1.37;;;16.30;51.60;;;;;;5042684;28;20412;-78
2021/05/27 11:38:03;;;;;;;2.97;2.20;;;16.40;53.20;;;;;;5046317;28;20918;-76
2021/05/27 11:40:38;;;;;;;4.40;1.83;;;16.70;52.50;;;;;;5043245;28;20423;-76
2021/05/27 11:43:04;;;;;;;5.87;1.87;;;16.70;51.40;;;;;;5039402;28;20416;-77
2021/05/27 11:45:40;;;;;;;3.43;1.83;;;16.60;52.00;;;;;;5039586;28;20414;-77
2021/05/27 11:48:14;;;;;;;3.80;2.40;;;17.20;51.30;;;;;;5037885;28;20417;-76
2021/05/27 11:50:41;;;;;;;5.43;1.97;;;17.20;51.00;;;;;;5038824;28;20439;-77
2021/05/27 11:53:07;;;;;;;2.40;1.80;;;17.10;51.20;;;;;;5014837;28;20459;-79
2021/05/27 11:55:35;;;;;;;3.77;2.00;;;16.90;51.30;;;;;;5025599;28;20945;-78
2021/05/27 11:58:01;;;;;;;2.93;2.10;;;16.70;52.50;;;;;;5046124;28;20468;-77
2021/05/27 12:00:27;;;;;;;3.10;2.50;;;16.30;53.30;;;;;;5045470;28;20425;-79
2021/05/27 12:02:54;;;;;;;3.17;1.70;;;16.40;54.00;;;;;;5040148;28;20428;-76
2021/05/27 12:05:25;;;;;;;3.00;1.93;;;16.70;54.40;;;;;;5025820;28;20937;-77
2021/05/27 12:08:00;;;;;;;5.83;2.07;;;16.90;53.00;;;;;;5039670;28;20461;-77
2021/05/27 12:10:37;;;;;;;3.17;1.90;;;17.00;52.10;;;;;;5047866;28;20420;-76
2021/05/27 12:13:15;;;;;;;4.13;2.00;;;17.00;51.80;;;;;;5032448;28;20460;-78
2021/05/27 12:15:44;;;;;;;2.43;2.00;;;16.90;51.70;;;;;;5029308;28;20451;-76
2021/05/27 12:18:18;;;;;;;1.83;1.77;;;16.60;52.80;;;;;;5031954;28;20501;-77
2021/05/27 12:20:48;;;;;;;4.33;2.30;;;16.30;53.60;;;;;;5019165;28;20502;-77
2021/05/27 12:23:16;;;;;;;3.43;2.20;;;16.60;53.20;;;;;;5032240;28;20423;-78
2021/05/27 12:25:45;;;;;;;2.47;1.83;;;17.40;50.90;;;;;;5029266;28;20555;-76
2021/05/27 12:28:12;;;;;;;3.93;2.20;;;17.50;50.50;;;;;;5030733;28;20431;-75
2021/05/27 12:30:40;;;;;;;5.30;2.20;;;17.40;49.80;;;;;;5037607;28;20445;-78
2021/05/27 12:33:07;;;;;;;5.93;2.63;;;17.00;50.70;;;;;;5050350;28;20471;-78
2021/05/27 12:35:34;;;;;;;5.30;1.83;;;17.10;50.60;;;;;;5049376;28;20453;-76
2021/05/27 12:38:02;;;;;;;4.77;2.30;;;16.70;52.10;;;;;;5048304;28;20458;-76
2021/05/27 12:40:39;;;;;;;2.53;1.93;;;17.00;52.00;;;;;;5030692;28;20427;-77
2021/05/27 12:43:40;;;;;;;4.50;1.87;;;17.30;51.30;;;;;;5029767;28;20573;-77
2021/05/27 12:46:11;;;;;;;5.10;2.00;;;18.00;49.40;;;;;;5018449;28;20445;-78
2021/05/27 12:49:09;;;;;;;4.40;2.80;;;18.30;46.90;;;;;;5032803;28;20431;-77
2021/05/27 12:51:40;;;;;;;7.57;2.23;;;18.20;48.20;;;;;;5009906;28;20843;-76
2021/05/27 12:54:06;;;;;;;4.13;2.33;;;19.00;46.30;;;;;;5043287;28;20531;-78
2021/05/27 12:56:33;;;;;;;1.90;1.90;;;19.40;44.70;;;;;;5031471;28;20475;-77
2021/05/27 12:59:01;;;;;;;4.13;1.80;;;18.70;46.70;;;;;;5026174;28;20197;-76
2021/05/27 13:01:33;;;;;;;4.10;1.60;;;18.70;47.10;;;;;;5038593;28;20462;-75
2021/05/27 13:03:59;;;;;;;4.60;2.03;;;17.70;50.10;;;;;;5022696;28;20448;-77
2021/05/27 13:06:33;;;;;;;2.60;1.50;;;17.60;49.90;;;;;;5019220;28;20458;-79
2021/05/27 13:09:08;;;;;;;3.43;1.80;;;17.50;50.50;;;;;;5028480;28;20933;-77
2021/05/27 13:11:44;;;;;;;3.00;1.90;;;17.50;50.50;;;;;;5024284;28;20984;-77
2021/05/27 13:14:26;;;;;;;3.30;1.83;;;17.50;51.20;;;;;;5040554;28;20482;-76